createdAt,value
2018-01-16T00:02:09.371Z,57.20
2018-01-16T00:04:36.816Z,57.90
2018-01-16T00:07:04.509Z,58.50
2018-01-16T00:09:32.008Z,58.30
2018-01-16T00:12:00.324Z,56.80
2018-01-16T00:14:27.797Z,56.70
2018-01-16T00:16:55.301Z,56.40
2018-01-16T00:19:22.765Z,56.50
2018-01-16T00:21:50.300Z,56.10
2018-01-16T00:24:18.518Z,54.30
2018-01-16T00:26:46.073Z,54.30
2018-01-16T00:29:13.815Z,54.40
2018-01-16T00:31:41.437Z,54.50
2018-01-16T00:34:08.945Z,52.70
2018-01-16T00:36:36.397Z,51.70
2018-01-16T00:39:04.675Z,51.50
2018-01-16T00:41:32.141Z,51.40
2018-01-16T00:43:59.596Z,50.90
2018-01-16T00:46:27.101Z,50.90
2018-01-16T00:48:54.615Z,50.00
2018-01-16T00:51:22.074Z,50.40
2018-01-16T00:53:49.542Z,50.10
2018-01-16T00:56:17.019Z,48.80
2018-01-16T00:58:44.482Z,49.00
2018-01-16T01:01:11.931Z,48.40
2018-01-16T01:03:39.368Z,48.50
2018-01-16T01:06:06.861Z,47.00
2018-01-16T01:08:34.346Z,46.70
2018-01-16T01:11:01.813Z,46.60
2018-01-16T01:13:29.321Z,46.50
2018-01-16T01:15:56.779Z,46.30
2018-01-16T01:18:24.249Z,46.60
2018-01-16T01:20:52.526Z,47.20
2018-01-16T01:23:19.979Z,47.10
2018-01-16T01:25:47.566Z,47.00
2018-01-16T01:28:15.041Z,47.10
2018-01-16T01:30:43.278Z,48.30
2018-01-16T01:33:10.769Z,48.20
2018-01-16T01:35:38.337Z,49.10
2018-01-16T01:38:06.575Z,49.20
2018-01-16T01:40:34.069Z,49.00
2018-01-16T01:43:02.343Z,50.30
2018-01-16T01:45:29.844Z,50.20
2018-01-16T01:47:57.363Z,50.90
2018-01-16T01:50:24.824Z,51.80
2018-01-16T01:52:52.815Z,52.60
2018-01-16T01:55:20.247Z,52.60
2018-01-16T01:57:47.700Z,52.40
2018-01-16T02:00:15.214Z,52.90
2018-01-16T02:02:42.679Z,52.50
2018-01-16T02:05:10.278Z,52.60
2018-01-16T02:07:37.786Z,52.40
2018-01-16T02:10:05.244Z,52.50
2018-01-16T02:12:32.797Z,52.50
2018-01-16T02:15:00.261Z,52.20
2018-01-16T02:17:28.334Z,52.50
2018-01-16T02:20:02.606Z,52.30
2018-01-16T02:22:30.050Z,52.30
2018-01-16T02:24:57.556Z,52.60
2018-01-16T02:27:25.812Z,53.90
2018-01-16T02:29:53.372Z,53.80
2018-01-16T02:32:20.951Z,54.20
2018-01-16T02:34:49.199Z,55.70
2018-01-16T02:37:16.685Z,55.70
2018-01-16T02:39:44.258Z,56.30
2018-01-16T02:42:12.560Z,57.10
2018-01-16T02:44:40.113Z,57.50
2018-01-16T02:47:07.646Z,57.80
2018-01-16T02:49:35.136Z,57.90
2018-01-16T02:52:02.620Z,57.90
2018-01-16T02:54:30.074Z,58.40
2018-01-16T02:56:57.522Z,58.30
2018-01-16T02:59:24.975Z,58.50
2018-01-16T03:01:52.564Z,58.40
2018-01-16T03:04:20.807Z,58.20
2018-01-16T03:06:48.673Z,58.10
2018-01-16T03:09:16.172Z,58.20
2018-01-16T03:11:44.502Z,58.40
2018-01-16T03:14:12.173Z,58.80
2018-01-16T03:16:39.702Z,59.10
2018-01-16T03:19:07.253Z,59.50
2018-01-16T03:21:35.324Z,60.00
2018-01-16T03:24:02.788Z,60.30
2018-01-16T03:26:30.330Z,60.80
2018-01-16T03:28:57.829Z,61.20
2018-01-16T03:31:25.361Z,61.70
2018-01-16T03:33:52.857Z,62.10
2018-01-16T03:36:20.379Z,62.30
2018-01-16T03:38:47.990Z,63.10
2018-01-16T03:41:15.454Z,63.30
2018-01-16T03:43:42.923Z,63.20
2018-01-16T03:46:10.369Z,63.50
2018-01-16T03:48:38.693Z,63.80
2018-01-16T03:51:06.148Z,63.60
2018-01-16T03:53:33.587Z,63.60
2018-01-16T03:56:01.100Z,63.20
2018-01-16T03:58:28.568Z,63.10
2018-01-16T04:00:56.922Z,63.10
2018-01-16T04:03:24.352Z,63.10
2018-01-16T04:05:52.985Z,63.10
2018-01-16T04:08:20.481Z,63.00
2018-01-16T04:10:48.767Z,63.20
2018-01-16T04:13:16.266Z,63.20
2018-01-16T04:15:43.720Z,63.20
2018-01-16T04:18:11.180Z,63.00
2018-01-16T04:20:38.658Z,62.90
2018-01-16T04:23:06.109Z,62.60
2018-01-16T04:25:34.591Z,62.50
2018-01-16T04:28:02.081Z,62.40
2018-01-16T04:30:30.192Z,62.70
2018-01-16T04:32:57.688Z,62.50
2018-01-16T04:35:25.185Z,62.60
2018-01-16T04:37:52.770Z,62.40
2018-01-16T04:40:20.224Z,62.70
2018-01-16T04:42:47.697Z,62.40
2018-01-16T04:45:15.790Z,62.60
2018-01-16T04:47:43.242Z,62.30
2018-01-16T04:50:10.732Z,61.80
2018-01-16T04:52:38.481Z,61.70
2018-01-16T04:55:06.847Z,61.70
2018-01-16T04:57:34.327Z,61.60
2018-01-16T05:00:01.797Z,61.70
2018-01-16T05:02:29.305Z,62.10
2018-01-16T05:04:56.786Z,62.50
2018-01-16T05:07:24.572Z,62.60
2018-01-16T05:09:52.082Z,62.90
2018-01-16T05:12:19.531Z,62.80
2018-01-16T05:14:47.114Z,63.00
2018-01-16T05:17:14.598Z,62.80
2018-01-16T05:19:42.076Z,62.70
2018-01-16T05:22:09.532Z,62.40
2018-01-16T05:24:36.981Z,62.00
2018-01-16T05:27:04.484Z,61.90
2018-01-16T05:29:32.010Z,61.50
2018-01-16T05:31:59.504Z,61.10
2018-01-16T05:34:27.012Z,61.10
2018-01-16T05:36:54.509Z,61.00
2018-01-16T05:39:22.933Z,60.40
2018-01-16T05:41:50.698Z,60.10
2018-01-16T05:44:18.168Z,60.00
2018-01-16T05:46:46.458Z,59.80
2018-01-16T05:49:14.605Z,59.70
2018-01-16T05:51:42.080Z,59.70
2018-01-16T05:54:10.377Z,60.30
2018-01-16T05:56:37.929Z,60.20
2018-01-16T05:59:08.932Z,60.50
2018-01-16T06:01:36.409Z,60.60
2018-01-16T06:04:03.965Z,60.80
2018-01-16T06:06:31.470Z,60.80
2018-01-16T06:08:58.944Z,60.80
2018-01-16T06:11:26.392Z,60.80
2018-01-16T06:13:53.842Z,61.00
2018-01-16T06:16:21.332Z,60.70
2018-01-16T06:18:48.877Z,60.30
2018-01-16T06:21:16.325Z,60.40
2018-01-16T06:23:43.846Z,60.20
2018-01-16T06:26:12.069Z,60.30
2018-01-16T06:28:39.564Z,60.20
2018-01-16T06:31:07.787Z,60.20
2018-01-16T06:33:35.338Z,60.20
2018-01-16T06:36:02.788Z,60.20
2018-01-16T06:38:30.316Z,60.50
2018-01-16T06:40:57.809Z,60.40
2018-01-16T06:43:25.380Z,60.50
2018-01-16T06:45:52.961Z,60.60
2018-01-16T06:48:20.559Z,60.80
2018-01-16T06:50:48.116Z,60.60
2018-01-16T06:53:15.606Z,60.50
2018-01-16T06:55:43.135Z,60.40
2018-01-16T06:58:10.649Z,60.40
2018-01-16T07:00:38.901Z,59.80
2018-01-16T07:03:06.420Z,59.70
2018-01-16T07:05:35.418Z,59.40
2018-01-16T07:08:03.695Z,59.30
2018-01-16T07:10:32.001Z,58.80
2018-01-16T07:12:59.787Z,58.80
2018-01-16T07:15:27.232Z,58.50
2018-01-16T07:17:54.743Z,59.50
2018-01-16T07:20:22.200Z,58.60
2018-01-16T07:22:49.659Z,57.90
2018-01-16T07:25:17.922Z,57.50
2018-01-16T07:27:45.497Z,57.50
2018-01-16T07:30:13.832Z,56.70
2018-01-16T07:32:41.264Z,56.10
2018-01-16T07:35:08.741Z,56.00
2018-01-16T07:37:41.553Z,55.80
2018-01-16T07:40:09.874Z,55.50
2018-01-16T07:42:38.308Z,55.30
2018-01-16T07:45:05.926Z,55.80
2018-01-16T07:47:33.589Z,55.90
2018-01-16T07:50:01.127Z,55.80
2018-01-16T07:52:28.694Z,55.80
2018-01-16T07:54:57.497Z,56.10
2018-01-16T08:00:05.825Z,54.90
2018-01-16T08:02:33.368Z,54.70
2018-01-16T08:05:01.773Z,54.50
2018-01-16T08:07:54.936Z,54.50
2018-01-16T08:10:23.271Z,54.80
2018-01-16T08:12:52.872Z,54.10
2018-01-16T08:15:21.142Z,54.00
2018-01-16T08:17:48.782Z,54.00
2018-01-16T08:20:16.296Z,54.00
2018-01-16T08:22:45.023Z,53.80
2018-01-16T08:25:14.967Z,53.70
2018-01-16T08:27:44.711Z,53.50
2018-01-16T08:46:38.717Z,54.80
2018-01-16T08:49:10.318Z,54.70
2018-01-16T08:54:31.729Z,54.50
2018-01-16T08:57:00.272Z,54.00
2018-01-16T08:59:28.021Z,54.00
2018-01-16T09:01:55.666Z,54.00
2018-01-16T09:04:23.266Z,53.90
2018-01-16T09:06:50.803Z,53.80
2018-01-16T09:09:19.043Z,53.60
2018-01-16T09:11:46.918Z,53.40
2018-01-16T09:14:15.477Z,53.70
2018-01-16T09:16:43.891Z,54.00
2018-01-16T09:19:13.197Z,55.80
2018-01-16T09:21:50.359Z,57.80
2018-01-16T09:24:32.190Z,58.60
2018-01-16T09:32:43.298Z,58.10
2018-01-16T09:35:17.438Z,56.80
2018-01-16T09:37:47.690Z,56.50
2018-01-16T09:40:18.623Z,57.00
2018-01-16T09:42:46.827Z,56.20
2018-01-16T09:45:14.673Z,56.00
2018-01-16T09:47:55.094Z,55.40
2018-01-16T09:50:25.452Z,55.70
2018-01-16T09:52:55.212Z,55.40
2018-01-16T09:55:22.908Z,55.60
2018-01-16T09:57:51.444Z,55.30
2018-01-16T10:00:20.344Z,55.50
2018-01-16T10:02:48.308Z,55.00
2018-01-16T10:05:16.384Z,53.50
2018-01-16T10:07:44.298Z,53.00
2018-01-16T10:10:11.898Z,52.70
2018-01-16T10:12:39.909Z,53.00
2018-01-16T10:15:07.654Z,52.80
2018-01-16T10:17:35.268Z,52.80
2018-01-16T10:20:02.819Z,52.50
2018-01-16T10:22:30.483Z,52.10
2018-01-16T10:24:58.192Z,52.00
2018-01-16T10:27:25.754Z,51.90
2018-01-16T10:29:53.328Z,52.20
2018-01-16T10:32:20.899Z,52.00
2018-01-16T10:34:48.619Z,52.10
2018-01-16T10:37:18.188Z,52.10
2018-01-16T10:39:45.746Z,52.00
2018-01-16T10:42:13.712Z,52.20
2018-01-16T10:44:41.213Z,51.90
2018-01-16T10:47:08.876Z,52.90
2018-01-16T10:49:37.212Z,51.60
2018-01-16T10:52:04.710Z,51.80
2018-01-16T10:54:33.166Z,53.00
2018-01-16T10:57:00.660Z,53.30
2018-01-16T10:59:29.612Z,53.50
2018-01-16T11:01:57.169Z,52.40
2018-01-16T11:04:25.961Z,51.70
2018-01-16T11:06:55.104Z,51.10
2018-01-16T11:09:22.798Z,50.90
2018-01-16T11:11:51.449Z,50.50
2018-01-16T11:14:19.092Z,50.40
2018-01-16T11:16:47.285Z,50.40
2018-01-16T11:19:15.003Z,51.00
2018-01-16T11:21:43.480Z,52.50
2018-01-16T11:24:11.635Z,52.40
2018-01-16T11:26:42.530Z,53.50
2018-01-16T11:29:16.526Z,53.40
2018-01-16T11:31:52.114Z,53.20
2018-01-16T11:34:25.382Z,54.20
2018-01-16T11:37:16.192Z,54.00
2018-01-16T11:39:44.814Z,54.60
2018-01-16T11:42:16.076Z,54.50
2018-01-16T11:44:44.427Z,53.10
2018-01-16T11:47:11.932Z,53.00
2018-01-16T11:49:39.788Z,52.40
2018-01-16T11:52:07.397Z,52.40
2018-01-16T11:54:36.607Z,53.30
2018-01-16T11:57:04.273Z,54.00
2018-01-16T11:59:32.080Z,54.50
2018-01-16T12:01:59.678Z,54.50
2018-01-16T12:04:27.365Z,55.10
2018-01-16T12:06:54.964Z,55.70
2018-01-16T12:09:23.403Z,58.80
2018-01-16T12:11:50.882Z,58.60
2018-01-16T12:14:19.287Z,71.60
2018-01-16T12:16:47.681Z,71.50
2018-01-16T12:19:15.815Z,73.60
2018-01-16T12:21:44.177Z,78.50
2018-01-16T12:24:11.760Z,78.30
2018-01-16T12:26:39.461Z,77.20
2018-01-16T12:29:06.996Z,74.90
2018-01-16T12:31:34.751Z,75.60
2018-01-16T12:34:02.824Z,75.30
2018-01-16T12:36:30.569Z,74.80
2018-01-16T12:39:27.780Z,74.50
2018-01-16T12:41:57.108Z,74.30
2018-01-16T12:44:24.652Z,74.40
2018-01-16T12:46:52.993Z,74.10
2018-01-16T12:49:21.312Z,74.00
2018-01-16T12:51:48.985Z,73.90
2018-01-16T12:54:16.736Z,73.20
2018-01-16T12:56:45.351Z,73.60
2018-01-16T12:59:12.925Z,74.10
2018-01-16T13:01:40.562Z,74.20
2018-01-16T13:04:08.554Z,74.80
2018-01-16T13:06:37.687Z,74.00
2018-01-16T13:09:05.307Z,73.70
2018-01-16T13:11:33.630Z,73.20
2018-01-16T13:14:01.344Z,72.90
2018-01-16T13:16:28.908Z,72.80
2018-01-16T13:18:56.610Z,72.10
2018-01-16T13:21:24.125Z,72.20
2018-01-16T13:23:52.387Z,72.10
2018-01-16T13:26:20.013Z,72.00
2018-01-16T13:28:47.781Z,71.80
2018-01-16T13:31:15.333Z,71.70
2018-01-16T13:33:42.886Z,71.90
2018-01-16T13:36:10.401Z,72.60
2018-01-16T13:38:38.670Z,75.20
2018-01-16T13:41:06.169Z,75.00
2018-01-16T13:43:34.527Z,74.60
2018-01-16T13:46:02.101Z,74.60
2018-01-16T13:48:30.378Z,74.90
2018-01-16T13:50:58.833Z,74.70
2018-01-16T13:53:28.420Z,75.50
2018-01-16T13:55:55.995Z,75.50
2018-01-16T13:58:23.529Z,73.80
2018-01-16T14:00:51.140Z,75.10
2018-01-16T14:03:18.891Z,76.60
2018-01-16T14:05:46.404Z,77.70
2018-01-16T14:08:13.878Z,80.10
2018-01-16T14:10:41.344Z,81.80
2018-01-16T14:13:08.866Z,82.20
2018-01-16T14:15:37.386Z,81.70
2018-01-16T14:18:04.923Z,83.20
2018-01-16T14:20:32.926Z,85.50
2018-01-16T14:23:00.571Z,87.80
2018-01-16T14:25:28.259Z,88.40
2018-01-16T14:42:33.951Z,94.00
2018-01-16T14:45:12.283Z,97.00
2018-01-16T15:13:37.648Z,95.70
2018-01-16T15:16:05.099Z,95.60
2018-01-16T15:18:32.537Z,95.80
2018-01-16T15:20:59.977Z,95.90
2018-01-16T15:23:27.430Z,96.00
2018-01-16T15:25:54.881Z,96.00
2018-01-16T15:28:22.335Z,96.30
2018-01-16T15:30:49.800Z,96.40
2018-01-16T15:33:17.273Z,96.40
2018-01-16T15:35:44.724Z,96.50
2018-01-16T15:38:12.168Z,96.40
2018-01-16T15:40:39.625Z,96.20
2018-01-16T15:43:07.072Z,96.10
2018-01-16T15:45:34.528Z,95.70
2018-01-16T15:48:01.969Z,96.00
2018-01-16T15:50:29.418Z,96.20
2018-01-16T15:52:56.921Z,96.30
2018-01-16T15:55:24.388Z,96.20
2018-01-16T15:57:51.837Z,96.20
2018-01-16T16:00:19.306Z,96.20
2018-01-16T16:02:46.794Z,96.50
2018-01-16T16:05:14.246Z,96.40
2018-01-16T16:07:42.465Z,96.30
2018-01-16T16:10:09.916Z,96.30
2018-01-16T16:12:37.385Z,96.50
2018-01-16T16:15:05.603Z,94.80
2018-01-16T16:17:33.068Z,94.70
2018-01-16T16:20:00.504Z,95.40
2018-01-16T16:22:28.001Z,95.50
2018-01-16T16:24:55.438Z,95.40
2018-01-16T16:27:22.883Z,95.40
2018-01-16T16:29:50.311Z,95.20
2018-01-16T16:32:17.788Z,95.00
2018-01-16T16:34:45.249Z,94.80
2018-01-16T16:37:12.729Z,94.70
2018-01-16T16:39:40.151Z,94.80
2018-01-16T16:42:07.614Z,94.80
2018-01-16T16:44:35.089Z,94.50
2018-01-16T16:47:02.503Z,94.50
2018-01-16T16:49:30.717Z,94.20
2018-01-16T16:51:58.169Z,94.20
2018-01-16T16:54:25.592Z,94.00
2018-01-16T16:56:53.812Z,92.30
2018-01-16T16:59:21.248Z,92.00
2018-01-16T17:01:48.793Z,92.40
2018-01-16T17:04:16.239Z,91.70
2018-01-16T17:06:43.696Z,92.70
2018-01-16T17:09:11.136Z,92.30
2018-01-16T17:11:38.563Z,91.40
2018-01-16T17:14:06.012Z,91.60
2018-01-16T17:16:33.462Z,91.20
2018-01-16T17:19:00.920Z,92.00
2018-01-16T17:21:28.357Z,90.70
2018-01-16T17:23:55.923Z,90.50
2018-01-16T17:26:23.369Z,90.90
2018-01-16T17:28:50.795Z,89.70
2018-01-16T17:31:18.226Z,90.70
2018-01-16T17:33:45.676Z,90.00
2018-01-16T17:36:13.108Z,90.70
2018-01-16T17:38:40.552Z,90.40
2018-01-16T17:41:08.001Z,89.60
2018-01-16T17:43:36.188Z,86.00
2018-01-16T17:46:03.631Z,85.80
2018-01-16T17:48:31.059Z,87.90
2018-01-16T17:50:58.501Z,84.40
2018-01-16T17:53:25.952Z,86.20
2018-01-16T17:55:53.396Z,85.20
2018-01-16T17:58:20.829Z,83.80
2018-01-16T18:00:48.268Z,85.00
2018-01-16T18:03:16.462Z,84.00
2018-01-16T18:05:43.914Z,83.90
2018-01-16T18:08:11.352Z,83.70
2018-01-16T18:10:38.794Z,84.30
2018-01-16T18:13:06.240Z,85.00
2018-01-16T18:15:33.689Z,85.00
2018-01-16T18:18:01.114Z,85.60
2018-01-16T18:20:28.563Z,83.50
2018-01-16T18:22:55.988Z,83.60
2018-01-16T18:25:24.206Z,84.40
2018-01-16T18:27:51.637Z,84.40
2018-01-16T18:30:19.090Z,84.50
2018-01-16T18:32:46.543Z,88.80
2018-01-16T18:35:13.965Z,89.10
2018-01-16T18:37:41.392Z,86.80
2018-01-16T18:40:08.816Z,83.60
2018-01-16T18:42:36.614Z,83.00
2018-01-16T18:45:04.031Z,83.20
2018-01-16T18:47:32.249Z,80.50
2018-01-16T18:49:59.681Z,80.50
2018-01-16T18:52:27.128Z,82.20
2018-01-16T18:54:54.556Z,84.00
2018-01-16T18:57:22.029Z,85.10
2018-01-16T18:59:49.440Z,83.90
2018-01-16T19:02:16.877Z,86.60
2018-01-16T19:04:44.349Z,86.70
2018-01-16T19:07:11.776Z,85.00
2018-01-16T19:09:39.218Z,85.80
2018-01-16T19:12:06.668Z,87.30
2018-01-16T19:14:34.892Z,86.80
2018-01-16T19:17:02.328Z,86.70
2018-01-16T19:19:29.774Z,88.50
2018-01-16T19:21:57.215Z,87.70
2018-01-16T19:24:24.652Z,89.40
2018-01-16T19:26:52.093Z,87.50
2018-01-16T19:29:19.532Z,87.40
2018-01-16T19:31:46.977Z,89.10
2018-01-16T19:34:14.425Z,87.20
2018-01-16T19:36:41.947Z,87.50
2018-01-16T19:39:09.406Z,90.50
2018-01-16T19:41:36.837Z,90.70
2018-01-16T19:44:04.292Z,90.90
2018-01-16T19:46:31.719Z,86.80
2018-01-16T19:48:59.983Z,89.60
2018-01-16T19:51:27.411Z,89.30
2018-01-16T19:53:54.847Z,90.00
2018-01-16T19:56:22.295Z,91.10
2018-01-16T19:58:49.739Z,91.40
2018-01-16T20:01:17.184Z,91.50
2018-01-16T20:03:44.623Z,91.30
2018-01-16T20:06:12.055Z,91.00
2018-01-16T20:08:39.504Z,91.40
2018-01-16T20:11:06.938Z,90.50
2018-01-16T20:13:34.382Z,90.70
2018-01-16T20:16:01.819Z,91.10
2018-01-16T20:18:29.250Z,91.10
2018-01-16T20:20:56.795Z,91.40
2018-01-16T20:23:25.004Z,90.30
2018-01-16T20:25:52.452Z,90.30
2018-01-16T20:28:19.928Z,90.70
2018-01-16T20:30:47.367Z,90.10
2018-01-16T20:33:14.802Z,90.70
2018-01-16T20:35:42.252Z,90.50
2018-01-16T20:38:09.687Z,90.60
2018-01-16T20:40:37.184Z,90.10
2018-01-16T20:43:05.447Z,90.50
2018-01-16T20:45:32.889Z,90.30
2018-01-16T20:48:00.332Z,89.90
2018-01-16T20:50:27.783Z,90.80
2018-01-16T20:52:55.229Z,90.70
2018-01-16T20:55:22.674Z,90.10
2018-01-16T20:57:50.099Z,90.10
2018-01-16T21:00:17.560Z,90.00
2018-01-16T21:02:44.992Z,88.80
2018-01-16T21:05:13.201Z,89.20
2018-01-16T21:07:40.646Z,89.00
2018-01-16T21:10:08.094Z,90.10
2018-01-16T21:12:35.516Z,90.50
2018-01-16T21:15:02.975Z,90.40
2018-01-16T21:17:30.441Z,91.00
2018-01-16T21:19:57.862Z,91.30
2018-01-16T21:22:25.318Z,91.40
2018-01-16T21:24:52.744Z,91.10
2018-01-16T21:27:20.296Z,91.40
2018-01-16T21:29:47.744Z,91.20
2018-01-16T21:32:15.179Z,91.70
2018-01-16T21:34:42.633Z,92.20
2018-01-16T21:37:10.068Z,92.40
2018-01-16T21:39:37.524Z,92.20
2018-01-16T21:42:04.980Z,92.20
2018-01-16T21:44:32.439Z,91.90
2018-01-16T21:46:59.877Z,92.30
2018-01-16T21:49:27.416Z,92.40
2018-01-16T21:51:54.870Z,92.50
2018-01-16T21:54:22.299Z,92.60
2018-01-16T21:56:49.766Z,92.70
2018-01-16T21:59:17.209Z,92.90
2018-01-16T22:01:44.663Z,92.60
2018-01-16T22:04:12.093Z,92.70
2018-01-16T22:06:39.532Z,93.20
2018-01-16T22:09:07.001Z,92.80
2018-01-16T22:11:34.512Z,93.10
2018-01-16T22:14:02.735Z,92.90
2018-01-16T22:16:30.180Z,92.90
2018-01-16T22:18:57.607Z,92.50
2018-01-16T22:21:25.053Z,92.50
2018-01-16T22:23:52.492Z,91.70
2018-01-16T22:26:19.943Z,92.60
2018-01-16T22:28:47.378Z,92.80
2018-01-16T22:31:14.820Z,92.50
2018-01-16T22:33:42.236Z,92.70
2018-01-16T22:36:09.680Z,92.90
2018-01-16T22:38:37.115Z,93.00
2018-01-16T22:41:04.564Z,93.10
2018-01-16T22:43:32.016Z,93.20
2018-01-16T22:45:59.444Z,92.40
2018-01-16T22:48:26.883Z,92.30
2018-01-16T22:50:55.092Z,92.40
2018-01-16T22:53:22.519Z,92.30
2018-01-16T22:55:50.005Z,92.30
2018-01-16T22:58:17.448Z,92.20
2018-01-16T23:00:44.876Z,92.40
2018-01-16T23:03:12.354Z,91.90
2018-01-16T23:05:39.791Z,92.20
2018-01-16T23:08:07.237Z,91.80
2018-01-16T23:10:34.680Z,92.20
2018-01-16T23:13:02.116Z,92.00
2018-01-16T23:15:29.551Z,91.00
2018-01-16T23:17:57.094Z,91.20
2018-01-16T23:20:24.519Z,91.70
2018-01-16T23:22:51.964Z,91.70
2018-01-16T23:25:19.414Z,91.80
2018-01-16T23:27:46.864Z,92.10
2018-01-16T23:30:14.300Z,92.30
2018-01-16T23:32:41.736Z,91.80
2018-01-16T23:35:09.947Z,91.60
2018-01-16T23:37:37.371Z,91.60
2018-01-16T23:40:04.820Z,91.90
2018-01-16T23:42:33.060Z,91.70
2018-01-16T23:45:00.515Z,91.70
2018-01-16T23:47:27.952Z,91.00
2018-01-16T23:49:55.390Z,91.00
2018-01-16T23:52:22.831Z,90.90
2018-01-16T23:54:50.267Z,91.10
2018-01-16T23:57:17.711Z,91.40
2018-01-16T23:59:45.152Z,91.30
